Time;durP1;ratioP1;P1;durP2;ratioP2;P2;SDS_P1;SDS_P2;PMS_P1;PMS_P2;Temp;Humidity;BMP_temperature;BMP_pressure;BME280_temperature;BME280_humidity;BME280_pressure;Samples;Min_cycle;Max_cycle;Signal;HPM_P1;HPM_P2
2023/05/19 00:01:28;;;;;;;17.25;5.80;;;;;;;;;;5144979;27;20074;-78
2023/05/19 00:04:01;;;;;;;13.65;5.60;;;;;;;;;;5137195;27;20474;-78
2023/05/19 00:06:30;;;;;;;13.80;4.80;;;;;;;;;;5120708;27;20043;-78
2023/05/19 00:09:03;;;;;;;12.07;5.43;;;;;;;;;;5134710;27;20038;-78
2023/05/19 00:11:30;;;;;;;11.85;4.43;;;;;;;;;;5136672;27;20034;-77
2023/05/19 00:13:56;;;;;;;11.00;4.80;;;;;;;;;;5133632;27;20156;-78
2023/05/19 00:16:24;;;;;;;15.13;5.65;;;;;;;;;;5128845;27;20066;-78
2023/05/19 00:18:50;;;;;;;11.77;5.03;;;;;;;;;;5136245;27;20046;-78
2023/05/19 00:21:16;;;;;;;15.80;6.32;;;;;;;;;;5145343;27;20080;-78
2023/05/19 00:23:42;;;;;;;16.05;4.95;;;;;;;;;;5134126;27;20042;-78
2023/05/19 00:26:08;;;;;;;14.25;5.15;;;;;;;;;;5153546;27;20149;-79
2023/05/19 00:28:35;;;;;;;15.75;5.53;;;;;;;;;;5133960;27;20107;-78
2023/05/19 00:31:01;;;;;;;11.45;5.03;;;;;;;;;;5134294;27;20076;-78
2023/05/19 00:33:27;;;;;;;14.02;5.47;;;;;;;;;;5156442;27;20131;-78
2023/05/19 00:35:53;;;;;;;12.52;5.25;;;;;;;;;;5118274;27;20117;-78
2023/05/19 00:38:19;;;;;;;14.85;5.57;;;;;;;;;;5130691;27;20035;-78
2023/05/19 00:40:45;;;;;;;15.70;5.53;;;;;;;;;;5116392;27;20399;-78
2023/05/19 00:43:12;;;;;;;17.13;5.70;;;;;;;;;;5135202;27;20050;-78
2023/05/19 00:45:38;;;;;;;16.52;5.47;;;;;;;;;;5118476;27;20046;-78
2023/05/19 00:48:04;;;;;;;14.70;5.40;;;;;;;;;;5134231;27;20038;-78
2023/05/19 00:50:30;;;;;;;13.02;5.97;;;;;;;;;;5106617;27;20093;-78
2023/05/19 00:52:56;;;;;;;10.98;5.43;;;;;;;;;;5133505;27;20039;-78
2023/05/19 00:55:26;;;;;;;13.18;5.82;;;;;;;;;;5135143;27;20045;-78
2023/05/19 00:57:52;;;;;;;16.73;5.97;;;;;;;;;;5153461;27;20069;-78
2023/05/19 01:00:18;;;;;;;13.93;5.90;;;;;;;;;;5155479;27;20122;-79
2023/05/19 01:02:45;;;;;;;14.18;5.10;;;;;;;;;;5136054;27;20049;-78
2023/05/19 01:05:12;;;;;;;15.23;5.68;;;;;;;;;;5137212;27;20047;-78
2023/05/19 01:07:38;;;;;;;16.60;5.50;;;;;;;;;;5122750;27;20117;-78
2023/05/19 01:10:05;;;;;;;11.60;4.70;;;;;;;;;;5137066;27;20117;-78
2023/05/19 01:12:31;;;;;;;18.10;6.00;;;;;;;;;;5137246;27;20039;-78
2023/05/19 01:14:58;;;;;;;11.80;6.18;;;;;;;;;;5122672;27;20506;-78
2023/05/19 01:17:35;;;;;;;16.05;6.28;;;;;;;;;;5117027;27;20042;-78
2023/05/19 01:20:14;;;;;;;17.42;6.18;;;;;;;;;;5137032;27;20042;-78
2023/05/19 01:22:59;;;;;;;22.33;6.47;;;;;;;;;;5137476;27;20479;-78
2023/05/19 01:25:44;;;;;;;17.55;6.38;;;;;;;;;;5136746;27;20051;-78
2023/05/19 01:28:10;;;;;;;18.30;6.93;;;;;;;;;;5136688;27;20051;-79
2023/05/19 01:30:37;;;;;;;14.52;6.43;;;;;;;;;;5136716;27;20031;-79
2023/05/19 01:33:06;;;;;;;16.60;6.05;;;;;;;;;;5155340;27;20490;-78
2023/05/19 01:35:33;;;;;;;17.38;6.18;;;;;;;;;;5155344;27;20078;-78
2023/05/19 01:38:00;;;;;;;18.38;7.15;;;;;;;;;;5119404;27;20237;-78
2023/05/19 01:40:27;;;;;;;16.23;6.13;;;;;;;;;;5155387;27;20130;-78
2023/05/19 01:42:55;;;;;;;14.85;5.65;;;;;;;;;;5130415;27;20035;-78
2023/05/19 01:45:21;;;;;;;12.65;5.97;;;;;;;;;;5116361;27;20479;-78
2023/05/19 01:47:50;;;;;;;13.88;5.97;;;;;;;;;;5134862;27;20039;-77
2023/05/19 01:50:16;;;;;;;19.33;6.60;;;;;;;;;;5136548;27;20383;-78
2023/05/19 01:52:42;;;;;;;16.20;6.53;;;;;;;;;;5155425;27;20041;-78
2023/05/19 01:55:08;;;;;;;17.73;6.38;;;;;;;;;;5154717;27;20043;-78
2023/05/19 01:57:34;;;;;;;17.77;6.57;;;;;;;;;;5136640;27;20499;-78
2023/05/19 02:00:10;;;;;;;17.30;6.43;;;;;;;;;;5129426;27;20047;-78
2023/05/19 02:02:36;;;;;;;18.63;6.47;;;;;;;;;;5122115;27;20046;-78
2023/05/19 02:05:09;;;;;;;15.82;6.30;;;;;;;;;;5116400;27;20135;-78
2023/05/19 02:07:49;;;;;;;13.75;5.82;;;;;;;;;;5131128;27;20038;-78
2023/05/19 02:10:18;;;;;;;18.42;6.80;;;;;;;;;;5135858;27;20074;-78
2023/05/19 02:12:45;;;;;;;17.40;6.95;;;;;;;;;;5136165;27;20034;-77
2023/05/19 02:15:15;;;;;;;18.25;7.07;;;;;;;;;;5135711;27;20069;-77
2023/05/19 02:17:47;;;;;;;16.10;6.68;;;;;;;;;;5107671;27;20111;-78
2023/05/19 02:20:13;;;;;;;12.88;5.75;;;;;;;;;;5134016;27;20401;-77
2023/05/19 02:22:39;;;;;;;17.52;6.97;;;;;;;;;;5119285;27;20435;-77
2023/05/19 02:25:06;;;;;;;17.70;7.07;;;;;;;;;;5118601;27;20046;-77
2023/05/19 02:27:32;;;;;;;15.75;6.28;;;;;;;;;;5136005;27;20042;-78
2023/05/19 02:29:58;;;;;;;18.70;7.07;;;;;;;;;;5135922;27;20509;-77
2023/05/19 02:32:24;;;;;;;22.38;6.80;;;;;;;;;;5115394;27;20057;-78
2023/05/19 02:34:52;;;;;;;19.90;6.43;;;;;;;;;;5094446;27;20372;-78
2023/05/19 02:37:18;;;;;;;16.65;7.07;;;;;;;;;;5135441;27;20043;-78
2023/05/19 02:39:44;;;;;;;18.58;7.45;;;;;;;;;;5135895;27;20038;-78
2023/05/19 02:42:11;;;;;;;18.05;6.40;;;;;;;;;;5153959;27;20088;-78
2023/05/19 02:44:37;;;;;;;23.15;8.18;;;;;;;;;;5135690;27;20054;-78
2023/05/19 02:47:03;;;;;;;21.27;7.45;;;;;;;;;;5118573;27;20057;-78
2023/05/19 02:49:34;;;;;;;17.00;6.80;;;;;;;;;;5135783;27;20091;-78
2023/05/19 02:52:02;;;;;;;14.75;6.60;;;;;;;;;;5118825;27;20043;-78
2023/05/19 02:54:29;;;;;;;20.42;7.35;;;;;;;;;;5123972;27;20042;-78
2023/05/19 02:56:55;;;;;;;21.27;8.13;;;;;;;;;;5161764;27;20038;-78
2023/05/19 02:59:22;;;;;;;17.40;6.40;;;;;;;;;;5161662;27;20049;-78
2023/05/19 03:01:48;;;;;;;20.80;7.78;;;;;;;;;;5143046;27;20495;-78
2023/05/19 03:04:14;;;;;;;20.42;7.47;;;;;;;;;;5125093;27;20039;-78
2023/05/19 03:06:41;;;;;;;20.10;7.43;;;;;;;;;;5142469;27;20050;-78
2023/05/19 03:09:07;;;;;;;18.42;8.10;;;;;;;;;;5161072;27;20042;-78
2023/05/19 03:11:33;;;;;;;26.05;8.13;;;;;;;;;;5161050;27;20030;-78
2023/05/19 03:13:59;;;;;;;24.25;7.93;;;;;;;;;;5142586;27;20526;-78
2023/05/19 03:16:26;;;;;;;18.33;7.30;;;;;;;;;;5142126;27;20046;-78
2023/05/19 03:18:54;;;;;;;23.98;7.57;;;;;;;;;;5161161;27;20043;-78
2023/05/19 03:21:20;;;;;;;21.65;8.00;;;;;;;;;;5128599;27;20050;-78
2023/05/19 03:23:46;;;;;;;19.25;7.63;;;;;;;;;;5124653;27;20050;-77
2023/05/19 03:26:12;;;;;;;20.70;8.20;;;;;;;;;;5141818;27;20038;-78
2023/05/19 03:28:38;;;;;;;20.80;7.75;;;;;;;;;;5142215;27;20037;-78
2023/05/19 03:31:04;;;;;;;22.25;8.50;;;;;;;;;;5125099;27;20054;-78
2023/05/19 03:33:31;;;;;;;17.05;7.32;;;;;;;;;;5142385;27;20086;-77
2023/05/19 03:35:57;;;;;;;17.65;7.40;;;;;;;;;;5160682;27;20509;-78
2023/05/19 03:38:23;;;;;;;12.75;6.35;;;;;;;;;;5141886;27;20045;-78
2023/05/19 03:40:49;;;;;;;23.15;8.45;;;;;;;;;;5142378;27;20498;-78
2023/05/19 03:43:15;;;;;;;25.38;8.32;;;;;;;;;;5142154;27;20125;-78
2023/05/19 03:45:42;;;;;;;18.95;7.00;;;;;;;;;;5156571;27;20043;-78
2023/05/19 03:48:08;;;;;;;28.02;7.88;;;;;;;;;;5131394;27;20038;-78
2023/05/19 03:50:34;;;;;;;18.55;7.63;;;;;;;;;;5141887;27;20038;-78
2023/05/19 03:53:00;;;;;;;22.85;7.63;;;;;;;;;;5124964;27;20060;-78
2023/05/19 03:55:28;;;;;;;14.98;7.03;;;;;;;;;;5160603;27;20406;-78
2023/05/19 03:57:55;;;;;;;21.20;7.78;;;;;;;;;;5127964;27;20125;-78
2023/05/19 04:00:21;;;;;;;19.45;7.80;;;;;;;;;;5141775;27;20498;-78
2023/05/19 04:02:47;;;;;;;15.80;7.00;;;;;;;;;;5140840;27;20042;-78
2023/05/19 04:05:14;;;;;;;20.38;7.72;;;;;;;;;;5139410;27;20483;-78
2023/05/19 04:07:40;;;;;;;19.23;8.18;;;;;;;;;;5135293;27;20043;-78
2023/05/19 04:10:07;;;;;;;21.60;8.43;;;;;;;;;;5150207;27;20031;-78
2023/05/19 04:12:33;;;;;;;22.83;8.10;;;;;;;;;;5138581;27;20490;-78
2023/05/19 04:14:59;;;;;;;14.82;6.90;;;;;;;;;;5137784;27;20547;-79
2023/05/19 04:17:25;;;;;;;19.92;6.93;;;;;;;;;;5138697;27;20042;-78
2023/05/19 04:19:52;;;;;;;15.70;5.97;;;;;;;;;;5138463;27;20050;-78
2023/05/19 04:22:18;;;;;;;11.25;6.30;;;;;;;;;;5121061;27;20057;-78
2023/05/19 04:24:45;;;;;;;13.73;5.68;;;;;;;;;;5121157;27;20118;-78
2023/05/19 04:27:11;;;;;;;12.65;6.05;;;;;;;;;;5138448;27;20045;-78
2023/05/19 04:29:40;;;;;;;16.27;6.07;;;;;;;;;;5138209;27;20047;-78
2023/05/19 04:32:07;;;;;;;12.40;6.20;;;;;;;;;;5138090;27;20121;-78
2023/05/19 04:34:39;;;;;;;14.60;5.63;;;;;;;;;;5138225;27;20103;-78
2023/05/19 04:37:09;;;;;;;12.80;5.80;;;;;;;;;;5156803;27;20073;-77
2023/05/19 04:39:38;;;;;;;12.60;5.72;;;;;;;;;;5138277;27;20530;-78
2023/05/19 04:42:04;;;;;;;14.32;5.45;;;;;;;;;;5156679;27;20038;-78
2023/05/19 04:44:30;;;;;;;12.45;5.25;;;;;;;;;;5117025;27;20074;-78
2023/05/19 04:46:58;;;;;;;13.65;5.20;;;;;;;;;;5114661;27;20087;-78
2023/05/19 04:49:24;;;;;;;12.82;5.25;;;;;;;;;;5142240;27;20543;-78
2023/05/19 04:51:51;;;;;;;14.80;5.80;;;;;;;;;;5137836;27;20042;-78
2023/05/19 04:54:17;;;;;;;11.07;4.85;;;;;;;;;;5137840;27;20044;-77
2023/05/19 04:56:43;;;;;;;8.55;4.90;;;;;;;;;;5120569;27;20042;-77
2023/05/19 04:59:09;;;;;;;12.02;5.32;;;;;;;;;;5137714;27;20545;-76
2023/05/19 05:01:39;;;;;;;13.27;5.00;;;;;;;;;;5156369;27;20030;-76
2023/05/19 05:04:06;;;;;;;10.75;4.88;;;;;;;;;;5137806;27;20463;-77
2023/05/19 05:06:32;;;;;;;12.10;5.47;;;;;;;;;;5137068;27;20483;-76
2023/05/19 05:08:58;;;;;;;8.90;5.07;;;;;;;;;;5156240;27;20043;-77
2023/05/19 05:11:25;;;;;;;12.10;4.20;;;;;;;;;;5151858;27;20483;-78
2023/05/19 05:13:51;;;;;;;13.70;4.70;;;;;;;;;;5156077;27;20557;-78
2023/05/19 05:16:18;;;;;;;10.07;4.90;;;;;;;;;;5141202;27;20168;-76
2023/05/19 05:18:45;;;;;;;10.70;4.80;;;;;;;;;;5137190;27;20074;-77
2023/05/19 05:21:11;;;;;;;10.77;4.45;;;;;;;;;;5137500;27;20083;-77
2023/05/19 05:23:38;;;;;;;11.02;5.07;;;;;;;;;;5155797;27;20031;-76
2023/05/19 05:26:09;;;;;;;10.43;4.72;;;;;;;;;;5121208;27;20113;-76
2023/05/19 05:28:35;;;;;;;10.35;5.13;;;;;;;;;;5137183;27;20041;-77
2023/05/19 05:31:01;;;;;;;11.88;4.80;;;;;;;;;;5128129;27;20133;-76
2023/05/19 05:33:27;;;;;;;8.77;4.50;;;;;;;;;;5132030;27;20486;-77
2023/05/19 05:35:53;;;;;;;10.95;4.85;;;;;;;;;;5137258;27;20043;-76
2023/05/19 05:38:20;;;;;;;10.10;4.25;;;;;;;;;;5137028;27;20053;-77
2023/05/19 05:40:46;;;;;;;11.65;4.30;;;;;;;;;;5137092;27;20038;-78
2023/05/19 05:43:12;;;;;;;9.40;4.20;;;;;;;;;;5137011;27;20046;-77
2023/05/19 05:45:38;;;;;;;11.48;5.00;;;;;;;;;;5133580;27;20035;-77
2023/05/19 05:48:04;;;;;;;10.57;4.72;;;;;;;;;;5144303;27;20069;-76
2023/05/19 05:50:30;;;;;;;12.75;4.70;;;;;;;;;;5136553;27;20039;-78
2023/05/19 05:52:57;;;;;;;13.52;5.00;;;;;;;;;;5137075;27;20138;-76
2023/05/19 05:55:23;;;;;;;10.98;4.50;;;;;;;;;;5136966;27;20403;-76
2023/05/19 05:57:50;;;;;;;10.98;4.97;;;;;;;;;;5154968;27;20172;-78
2023/05/19 06:00:17;;;;;;;9.52;4.45;;;;;;;;;;5136615;27;20043;-79
2023/05/19 06:02:46;;;;;;;7.45;4.43;;;;;;;;;;5118821;27;20039;-80
2023/05/19 06:05:12;;;;;;;10.63;4.57;;;;;;;;;;5136567;27;20579;-79
2023/05/19 06:07:39;;;;;;;8.32;4.35;;;;;;;;;;5136482;27;20471;-78
2023/05/19 06:10:06;;;;;;;10.77;4.40;;;;;;;;;;5155281;27;20027;-80
2023/05/19 06:12:32;;;;;;;9.70;4.13;;;;;;;;;;5115898;27;20529;-79
2023/05/19 06:14:58;;;;;;;8.02;3.42;;;;;;;;;;5151489;27;20081;-78
2023/05/19 06:17:24;;;;;;;12.48;4.72;;;;;;;;;;5145650;27;20442;-80
2023/05/19 06:19:50;;;;;;;10.15;3.75;;;;;;;;;;5130574;27;20161;-76
2023/05/19 06:22:16;;;;;;;10.80;4.07;;;;;;;;;;5154775;27;20039;-79
2023/05/19 06:24:42;;;;;;;10.38;3.67;;;;;;;;;;5154351;27;20053;-79
2023/05/19 06:27:08;;;;;;;11.75;3.80;;;;;;;;;;5098510;27;20093;-78
2023/05/19 06:29:34;;;;;;;9.95;3.78;;;;;;;;;;5135051;27;20070;-78
2023/05/19 06:32:01;;;;;;;9.57;3.60;;;;;;;;;;5136519;27;20494;-78
2023/05/19 06:34:27;;;;;;;6.95;3.30;;;;;;;;;;5126605;27;20035;-79
2023/05/19 06:36:53;;;;;;;8.07;3.50;;;;;;;;;;5114275;27;20071;-78
2023/05/19 06:39:19;;;;;;;7.10;3.50;;;;;;;;;;5119312;27;20046;-81
2023/05/19 06:41:45;;;;;;;10.15;3.35;;;;;;;;;;5154458;27;20039;-80
2023/05/19 06:44:11;;;;;;;8.65;2.97;;;;;;;;;;5135697;27;20160;-79
2023/05/19 06:46:37;;;;;;;8.30;3.15;;;;;;;;;;5118539;27;20043;-80
2023/05/19 06:49:03;;;;;;;8.27;3.00;;;;;;;;;;5135925;27;20033;-80
2023/05/19 06:51:30;;;;;;;9.18;3.33;;;;;;;;;;5154441;27;20039;-80
2023/05/19 06:53:56;;;;;;;9.55;2.97;;;;;;;;;;5154191;27;20039;-81
2023/05/19 06:56:22;;;;;;;9.27;3.28;;;;;;;;;;5154053;27;20083;-80
2023/05/19 06:58:48;;;;;;;8.77;3.58;;;;;;;;;;5135667;27;20042;-81
2023/05/19 07:01:14;;;;;;;8.27;3.08;;;;;;;;;;5148309;27;20061;-78
2023/05/19 07:03:40;;;;;;;11.57;3.08;;;;;;;;;;5127278;27;20043;-78
2023/05/19 07:06:06;;;;;;;9.23;3.10;;;;;;;;;;5121106;27;20035;-79
2023/05/19 07:08:34;;;;;;;7.80;2.80;;;;;;;;;;5118840;27;20428;-81
2023/05/19 07:11:00;;;;;;;7.47;3.00;;;;;;;;;;5135759;27;20047;-81
2023/05/19 07:13:26;;;;;;;7.20;2.80;;;;;;;;;;5153999;27;20418;-80
2023/05/19 07:15:54;;;;;;;8.35;2.60;;;;;;;;;;5135287;27;20047;-81
2023/05/19 07:18:21;;;;;;;5.10;2.45;;;;;;;;;;5135361;27;20053;-80
2023/05/19 07:20:47;;;;;;;7.22;2.55;;;;;;;;;;5154339;27;20038;-78
2023/05/19 07:23:13;;;;;;;7.53;2.83;;;;;;;;;;5115609;27;20035;-80
2023/05/19 07:25:39;;;;;;;7.22;3.38;;;;;;;;;;5135322;27;20038;-78
2023/05/19 07:28:05;;;;;;;7.75;2.58;;;;;;;;;;5135730;27;20157;-77
2023/05/19 07:30:31;;;;;;;6.75;2.33;;;;;;;;;;5120941;27;20118;-75
2023/05/19 07:32:57;;;;;;;7.57;2.35;;;;;;;;;;5115155;28;20492;-77
2023/05/19 07:35:23;;;;;;;5.75;2.42;;;;;;;;;;5150804;27;20051;-77
2023/05/19 07:37:51;;;;;;;8.35;2.72;;;;;;;;;;5135616;27;20046;-76
2023/05/19 07:40:17;;;;;;;6.10;2.45;;;;;;;;;;5155711;27;20035;-76
2023/05/19 07:42:43;;;;;;;9.85;2.55;;;;;;;;;;5139078;27;20038;-80
2023/05/19 07:45:09;;;;;;;8.63;2.78;;;;;;;;;;5139044;27;20050;-81
2023/05/19 07:47:36;;;;;;;6.43;2.17;;;;;;;;;;5139250;27;20118;-81
2023/05/19 07:50:02;;;;;;;6.15;2.13;;;;;;;;;;5139519;27;20539;-81
2023/05/19 07:52:28;;;;;;;6.72;2.00;;;;;;;;;;5122037;27;20045;-81
2023/05/19 07:54:55;;;;;;;8.70;2.20;;;;;;;;;;5157237;27;20046;-81
2023/05/19 07:57:21;;;;;;;10.75;2.63;;;;;;;;;;5121739;27;20444;-77
2023/05/19 07:59:47;;;;;;;8.40;2.20;;;;;;;;;;5113761;27;20046;-75
2023/05/19 08:02:13;;;;;;;8.90;2.45;;;;;;;;;;5115775;27;20137;-77
2023/05/19 08:04:39;;;;;;;7.28;2.10;;;;;;;;;;5151263;27;20049;-76
2023/05/19 08:07:05;;;;;;;7.10;2.28;;;;;;;;;;5118151;27;20039;-75
2023/05/19 08:09:32;;;;;;;7.28;2.28;;;;;;;;;;5119464;27;20087;-77
2023/05/19 08:11:58;;;;;;;7.63;2.25;;;;;;;;;;5157034;27;20035;-75
2023/05/19 08:14:25;;;;;;;8.73;1.85;;;;;;;;;;5109247;27;20069;-75
2023/05/19 08:16:51;;;;;;;6.85;2.25;;;;;;;;;;5138132;27;20084;-76
2023/05/19 08:19:17;;;;;;;6.65;2.15;;;;;;;;;;5121531;27;20042;-76
2023/05/19 08:21:43;;;;;;;6.88;2.03;;;;;;;;;;5157103;27;20039;-76
2023/05/19 08:24:10;;;;;;;5.85;1.80;;;;;;;;;;5139030;27;20045;-76
2023/05/19 08:26:36;;;;;;;6.95;2.25;;;;;;;;;;5137858;27;20050;-77
2023/05/19 08:29:02;;;;;;;7.53;2.40;;;;;;;;;;5124289;27;20091;-77
2023/05/19 08:31:28;;;;;;;5.90;2.13;;;;;;;;;;5138621;27;20487;-75
2023/05/19 08:33:54;;;;;;;9.05;2.30;;;;;;;;;;5157116;27;20091;-78
2023/05/19 08:36:20;;;;;;;9.68;2.20;;;;;;;;;;5121238;27;20118;-75
2023/05/19 08:38:46;;;;;;;7.38;2.35;;;;;;;;;;5138241;27;20056;-74
2023/05/19 08:41:13;;;;;;;8.88;2.47;;;;;;;;;;5138270;27;20091;-79
2023/05/19 08:43:39;;;;;;;7.07;2.30;;;;;;;;;;5138416;27;20042;-78
2023/05/19 08:46:06;;;;;;;6.18;2.00;;;;;;;;;;5138237;27;20491;-78
2023/05/19 08:48:34;;;;;;;6.30;2.40;;;;;;;;;;5138309;27;20035;-78
2023/05/19 08:51:14;;;;;;;7.60;2.40;;;;;;;;;;5150998;27;20035;-80
2023/05/19 08:53:42;;;;;;;7.82;2.30;;;;;;;;;;5132237;27;20117;-78
2023/05/19 08:56:14;;;;;;;4.75;2.03;;;;;;;;;;5143210;27;20035;-78
2023/05/19 08:58:42;;;;;;;8.50;2.60;;;;;;;;;;5139363;27;20050;-77
2023/05/19 09:01:09;;;;;;;5.32;2.00;;;;;;;;;;5138729;27;20074;-82
2023/05/19 09:03:37;;;;;;;6.47;2.40;;;;;;;;;;5128063;27;20043;-80
2023/05/19 09:06:11;;;;;;;9.07;3.05;;;;;;;;;;5154367;27;20042;-78
2023/05/19 09:08:37;;;;;;;9.32;1.90;;;;;;;;;;5138526;27;20153;-85
2023/05/19 09:11:03;;;;;;;7.18;2.00;;;;;;;;;;5137863;27;20049;-81
2023/05/19 09:13:30;;;;;;;5.85;1.85;;;;;;;;;;5140086;27;20041;-82
2023/05/19 09:15:57;;;;;;;4.85;1.70;;;;;;;;;;5127621;27;20039;-79
2023/05/19 09:18:26;;;;;;;5.97;2.30;;;;;;;;;;5153330;27;20042;-78
2023/05/19 09:21:01;;;;;;;7.15;1.95;;;;;;;;;;5128681;27;20130;-83
2023/05/19 09:23:33;;;;;;;6.30;2.08;;;;;;;;;;5154051;27;20405;-83
2023/05/19 09:26:05;;;;;;;7.15;2.40;;;;;;;;;;5138568;27;20070;-84
2023/05/19 09:28:32;;;;;;;7.53;2.00;;;;;;;;;;5157290;27;20035;-82
2023/05/19 09:31:08;;;;;;;7.40;2.40;;;;;;;;;;5121676;27;20115;-82
2023/05/19 09:33:41;;;;;;;6.97;2.38;;;;;;;;;;5140684;27;20037;-82
2023/05/19 09:36:09;;;;;;;5.32;2.08;;;;;;;;;;5129923;27;20499;-83
2023/05/19 09:38:36;;;;;;;7.05;2.55;;;;;;;;;;5133818;27;20051;-80
2023/05/19 09:41:02;;;;;;;7.80;2.45;;;;;;;;;;5156894;27;20079;-82
2023/05/19 09:43:32;;;;;;;9.23;2.30;;;;;;;;;;5138725;27;20042;-82
2023/05/19 09:46:09;;;;;;;7.00;2.30;;;;;;;;;;5130949;27;20039;-81
2023/05/19 09:48:36;;;;;;;5.55;2.28;;;;;;;;;;5136075;27;20118;-83
2023/05/19 09:51:03;;;;;;;7.88;2.35;;;;;;;;;;5138271;27;20046;-82
2023/05/19 09:53:31;;;;;;;6.80;2.20;;;;;;;;;;5137578;27;20380;-82
2023/05/19 09:55:57;;;;;;;5.50;2.05;;;;;;;;;;5140587;27;20047;-82
2023/05/19 09:58:25;;;;;;;8.38;2.20;;;;;;;;;;5119785;27;20607;-83
2023/05/19 10:00:53;;;;;;;6.03;2.33;;;;;;;;;;5155625;27;20043;-79
2023/05/19 10:03:21;;;;;;;6.03;2.25;;;;;;;;;;5119335;27;20050;-77
2023/05/19 10:05:47;;;;;;;5.47;2.00;;;;;;;;;;5136810;27;20042;-79
2023/05/19 10:08:16;;;;;;;6.10;2.05;;;;;;;;;;5136250;27;20080;-82
2023/05/19 10:10:42;;;;;;;5.35;2.05;;;;;;;;;;5119772;27;20087;-82
2023/05/19 10:13:09;;;;;;;5.85;1.90;;;;;;;;;;5136267;27;20126;-80
2023/05/19 10:15:36;;;;;;;6.90;2.65;;;;;;;;;;5136548;27;20042;-79
2023/05/19 10:18:02;;;;;;;5.13;2.00;;;;;;;;;;5154790;27;20038;-83
2023/05/19 10:20:28;;;;;;;6.40;2.15;;;;;;;;;;5155025;27;20042;-83
2023/05/19 10:22:54;;;;;;;4.28;1.90;;;;;;;;;;5155232;27;20364;-85
2023/05/19 10:25:21;;;;;;;5.82;2.10;;;;;;;;;;5136084;27;20073;-83
2023/05/19 10:27:47;;;;;;;6.00;2.00;;;;;;;;;;5136524;27;20463;-79
2023/05/19 10:30:15;;;;;;;6.50;2.20;;;;;;;;;;5135882;27;20043;-78
2023/05/19 10:32:43;;;;;;;7.75;2.35;;;;;;;;;;5133919;27;20087;-77
2023/05/19 10:35:09;;;;;;;5.95;1.85;;;;;;;;;;5116554;27;20038;-77
2023/05/19 10:37:54;;;;;;;5.88;2.33;;;;;;;;;;5118115;27;20133;-76
2023/05/19 10:40:43;;;;;;;7.75;1.90;;;;;;;;;;5126751;27;20042;-77
2023/05/19 10:43:18;;;;;;;6.13;1.83;;;;;;;;;;5111054;27;20043;-80
2023/05/19 10:45:48;;;;;;;4.43;1.83;;;;;;;;;;5152834;27;20543;-82
2023/05/19 10:48:15;;;;;;;6.47;1.95;;;;;;;;;;5153790;27;20039;-83
2023/05/19 10:50:43;;;;;;;6.35;2.20;;;;;;;;;;5135496;27;20074;-83
2023/05/19 10:53:14;;;;;;;4.80;2.20;;;;;;;;;;5145832;27;20030;-83
2023/05/19 10:55:57;;;;;;;6.78;2.20;;;;;;;;;;5131652;27;20125;-83
2023/05/19 10:58:40;;;;;;;5.07;1.98;;;;;;;;;;5117932;27;20046;-83
2023/05/19 11:01:08;;;;;;;4.88;2.05;;;;;;;;;;5116649;27;20040;-84
2023/05/19 11:03:51;;;;;;;4.43;1.88;;;;;;;;;;5120579;27;20090;-77
2023/05/19 11:06:17;;;;;;;5.85;2.20;;;;;;;;;;5120511;27;20046;-78
2023/05/19 11:08:43;;;;;;;8.10;2.20;;;;;;;;;;5147616;27;20078;-79
2023/05/19 11:11:14;;;;;;;5.55;1.85;;;;;;;;;;5120711;27;20053;-78
2023/05/19 11:13:42;;;;;;;4.55;1.73;;;;;;;;;;5135198;27;20054;-78
2023/05/19 11:16:08;;;;;;;5.55;1.75;;;;;;;;;;5127696;27;20035;-77
2023/05/19 11:18:37;;;;;;;7.88;1.98;;;;;;;;;;5125154;27;20440;-83
2023/05/19 11:21:03;;;;;;;5.28;2.10;;;;;;;;;;5138689;27;20117;-83
2023/05/19 11:23:33;;;;;;;4.18;1.77;;;;;;;;;;5131870;27;20047;-83
2023/05/19 11:26:01;;;;;;;4.88;1.58;;;;;;;;;;5139374;27;20561;-79
2023/05/19 11:28:28;;;;;;;5.75;1.88;;;;;;;;;;5138951;27;20046;-79
2023/05/19 11:30:57;;;;;;;6.75;2.13;;;;;;;;;;5157450;27;20031;-79
2023/05/19 11:33:27;;;;;;;5.35;1.90;;;;;;;;;;5139024;27;20120;-77
2023/05/19 11:35:58;;;;;;;3.97;1.80;;;;;;;;;;5138882;27;20046;-78
2023/05/19 11:38:24;;;;;;;4.72;2.25;;;;;;;;;;5157427;27;20061;-79
2023/05/19 11:40:52;;;;;;;5.25;1.88;;;;;;;;;;5138956;27;20039;-79
2023/05/19 11:43:18;;;;;;;5.93;1.80;;;;;;;;;;5157193;27;20070;-77
2023/05/19 11:45:45;;;;;;;5.60;2.17;;;;;;;;;;5135892;27;20034;-77
2023/05/19 11:48:11;;;;;;;5.65;1.80;;;;;;;;;;5134323;27;20474;-83
2023/05/19 11:50:40;;;;;;;4.80;2.10;;;;;;;;;;5138205;27;20479;-84
2023/05/19 11:53:06;;;;;;;4.45;1.88;;;;;;;;;;5138523;27;20121;-78
2023/05/19 11:55:32;;;;;;;5.68;1.80;;;;;;;;;;5152489;27;20042;-80
2023/05/19 11:57:59;;;;;;;5.75;2.20;;;;;;;;;;5138696;27;20042;-77
2023/05/19 12:00:26;;;;;;;7.63;2.30;;;;;;;;;;5114177;27;20414;-77
2023/05/19 12:02:52;;;;;;;5.25;2.10;;;;;;;;;;5131484;27;20073;-77
2023/05/19 12:05:23;;;;;;;5.10;1.92;;;;;;;;;;5103455;27;20035;-79
2023/05/19 12:07:50;;;;;;;5.65;2.08;;;;;;;;;;5133096;27;20082;-75
2023/05/19 12:10:23;;;;;;;5.43;2.05;;;;;;;;;;5138240;27;20121;-77
2023/05/19 12:12:50;;;;;;;4.30;1.92;;;;;;;;;;5134480;27;20551;-75
2023/05/19 12:15:19;;;;;;;5.90;2.15;;;;;;;;;;5156659;27;20522;-76
2023/05/19 12:17:48;;;;;;;5.30;2.00;;;;;;;;;;5138027;27;20490;-77
2023/05/19 12:20:14;;;;;;;4.63;1.92;;;;;;;;;;5120613;27;20117;-81
2023/05/19 12:22:40;;;;;;;5.72;2.10;;;;;;;;;;5156603;27;20039;-79
2023/05/19 12:25:07;;;;;;;5.90;1.92;;;;;;;;;;5155555;27;20038;-79
2023/05/19 12:27:38;;;;;;;5.03;2.10;;;;;;;;;;5113976;27;20050;-78
2023/05/19 12:30:04;;;;;;;5.28;2.28;;;;;;;;;;5132462;27;20427;-78
2023/05/19 12:32:33;;;;;;;6.20;2.28;;;;;;;;;;5126270;27;20338;-82
2023/05/19 12:35:02;;;;;;;8.23;2.10;;;;;;;;;;5137304;27;20057;-83
2023/05/19 12:37:32;;;;;;;5.13;2.00;;;;;;;;;;5153498;27;20031;-83
2023/05/19 12:39:58;;;;;;;7.13;2.20;;;;;;;;;;5120152;27;20035;-81
2023/05/19 12:42:31;;;;;;;7.28;2.30;;;;;;;;;;5137584;27;20501;-82
2023/05/19 12:45:01;;;;;;;5.78;2.20;;;;;;;;;;5137711;27;20069;-83
2023/05/19 12:47:32;;;;;;;5.57;2.10;;;;;;;;;;5132791;27;20035;-83
2023/05/19 12:50:02;;;;;;;7.32;2.15;;;;;;;;;;5135331;27;20066;-82
2023/05/19 12:52:28;;;;;;;6.43;1.90;;;;;;;;;;5137354;27;20043;-82
2023/05/19 12:54:59;;;;;;;5.55;1.77;;;;;;;;;;5156208;27;20439;-83
2023/05/19 12:57:25;;;;;;;6.25;2.08;;;;;;;;;;5137094;27;20053;-82
2023/05/19 12:59:51;;;;;;;8.93;2.33;;;;;;;;;;5135466;27;20031;-79
2023/05/19 13:02:19;;;;;;;6.07;2.20;;;;;;;;;;5116005;27;20099;-77
2023/05/19 13:04:47;;;;;;;6.75;1.90;;;;;;;;;;5144593;27;20043;-77
2023/05/19 13:07:13;;;;;;;6.30;2.05;;;;;;;;;;5110195;27;20158;-79
2023/05/19 13:09:39;;;;;;;6.90;2.20;;;;;;;;;;5127804;27;20042;-79
2023/05/19 13:12:05;;;;;;;5.00;1.90;;;;;;;;;;5135274;27;20039;-78
2023/05/19 13:14:31;;;;;;;7.57;2.10;;;;;;;;;;5137296;27;20031;-80
2023/05/19 13:16:57;;;;;;;5.38;2.20;;;;;;;;;;5100502;27;20506;-77
2023/05/19 13:19:23;;;;;;;5.68;2.20;;;;;;;;;;5107748;27;20518;-77
2023/05/19 13:21:50;;;;;;;5.40;1.90;;;;;;;;;;5133044;27;20039;-77
2023/05/19 13:24:16;;;;;;;5.78;2.70;;;;;;;;;;5153280;27;20083;-78
2023/05/19 13:26:42;;;;;;;8.60;2.47;;;;;;;;;;5137097;27;20054;-79
2023/05/19 13:29:08;;;;;;;7.93;2.20;;;;;;;;;;5153177;27;20437;-77
2023/05/19 13:31:35;;;;;;;6.15;2.10;;;;;;;;;;5129424;27;20030;-77
2023/05/19 13:34:01;;;;;;;5.47;2.20;;;;;;;;;;5119739;27;20602;-78
2023/05/19 13:36:27;;;;;;;7.65;2.13;;;;;;;;;;5119435;27;20042;-76
2023/05/19 13:38:54;;;;;;;6.38;2.17;;;;;;;;;;5135898;27;20070;-76
2023/05/19 13:41:28;;;;;;;8.15;2.10;;;;;;;;;;5136084;27;20089;-77
2023/05/19 13:43:54;;;;;;;6.88;2.30;;;;;;;;;;5136815;27;20050;-76
2023/05/19 13:46:20;;;;;;;10.20;2.20;;;;;;;;;;5140143;27;20646;-80
2023/05/19 13:48:46;;;;;;;7.00;2.17;;;;;;;;;;5099222;27;20031;-80
2023/05/19 13:51:12;;;;;;;5.72;2.10;;;;;;;;;;5135726;27;20038;-84
2023/05/19 13:53:38;;;;;;;7.25;2.30;;;;;;;;;;5136412;27;20518;-83
2023/05/19 13:56:04;;;;;;;7.38;2.10;;;;;;;;;;5135296;27;20054;-83
2023/05/19 13:58:31;;;;;;;7.32;2.10;;;;;;;;;;5145818;27;20039;-84
2023/05/19 14:00:58;;;;;;;7.38;2.15;;;;;;;;;;5136148;27;20047;-84
2023/05/19 14:03:25;;;;;;;7.47;2.47;;;;;;;;;;5129911;27;20090;-82
2023/05/19 14:05:51;;;;;;;5.88;2.20;;;;;;;;;;5132155;27;20041;-82
2023/05/19 14:08:18;;;;;;;8.65;2.40;;;;;;;;;;5121332;27;20480;-83
2023/05/19 14:10:47;;;;;;;8.77;2.20;;;;;;;;;;5121040;27;20127;-83
2023/05/19 14:13:13;;;;;;;5.45;2.25;;;;;;;;;;5114677;27;20067;-82
2023/05/19 14:15:40;;;;;;;5.05;2.03;;;;;;;;;;5107250;27;20043;-81
2023/05/19 14:18:06;;;;;;;4.65;2.00;;;;;;;;;;5132934;27;20092;-81
2023/05/19 14:20:32;;;;;;;14.07;2.45;;;;;;;;;;5112331;28;20132;-79
2023/05/19 14:22:58;;;;;;;7.80;2.47;;;;;;;;;;5127140;27;20047;-77
2023/05/19 14:25:24;;;;;;;6.03;2.08;;;;;;;;;;5130907;27;20072;-77
2023/05/19 14:27:50;;;;;;;6.63;2.13;;;;;;;;;;5130635;27;20118;-78
2023/05/19 14:30:16;;;;;;;6.47;2.47;;;;;;;;;;5128005;27;20038;-82
2023/05/19 14:32:42;;;;;;;6.28;2.00;;;;;;;;;;5131723;27;20042;-76
2023/05/19 14:35:08;;;;;;;4.55;2.00;;;;;;;;;;5117215;27;20114;-76
2023/05/19 14:37:34;;;;;;;5.13;2.10;;;;;;;;;;5133253;27;20485;-79
2023/05/19 14:40:01;;;;;;;8.90;2.13;;;;;;;;;;5130417;27;20046;-78